Time;durP1;ratioP1;P1;durP2;ratioP2;P2;SDS_P1;SDS_P2;PMS_P1;PMS_P2;Temp;Humidity;BMP_temperature;BMP_pressure;BME280_temperature;BME280_humidity;BME280_pressure;Samples;Min_cycle;Max_cycle;Signal;HPM_P1;HPM_P2
2022/09/05 00:00:08;;;;;;;5.13;3.27;;;;;;;;;;5034153;28;20265;-61
2022/09/05 00:02:43;;;;;;;5.97;3.27;;;;;;;;;;5036871;28;20727;-62
2022/09/05 00:05:24;;;;;;;6.20;3.33;;;;;;;;;;5048257;28;20276;-61
2022/09/05 00:08:11;;;;;;;5.03;2.97;;;;;;;;;;5041572;28;20191;-61
2022/09/05 00:10:57;;;;;;;5.57;3.40;;;;;;;;;;5049202;28;20198;-62
2022/09/05 00:13:45;;;;;;;5.97;3.30;;;;;;;;;;5034499;28;20218;-61
2022/09/05 00:16:27;;;;;;;6.17;3.37;;;;;;;;;;5030710;28;20179;-61
2022/09/05 00:19:22;;;;;;;6.73;3.33;;;;;;;;;;5050158;28;20195;-61
2022/09/05 00:22:24;;;;;;;6.67;3.23;;;;;;;;;;5025150;28;20289;-62
2022/09/05 00:25:31;;;;;;;7.93;3.17;;;;;;;;;;5038372;28;20194;-61
2022/09/05 00:28:18;;;;;;;6.07;3.40;;;;;;;;;;5047454;28;20287;-63
2022/09/05 00:31:02;;;;;;;5.60;3.40;;;;;;;;;;5035744;28;20285;-62
2022/09/05 00:33:49;;;;;;;6.53;3.00;;;;;;;;;;5048495;28;20309;-62
2022/09/05 00:36:21;;;;;;;6.80;3.20;;;;;;;;;;5048950;28;20197;-62
2022/09/05 00:38:53;;;;;;;5.80;3.07;;;;;;;;;;5030913;28;20198;-62
2022/09/05 00:41:19;;;;;;;4.00;2.80;;;;;;;;;;5047628;28;20800;-62
2022/09/05 00:43:47;;;;;;;6.70;3.17;;;;;;;;;;5030644;28;20187;-62
2022/09/05 00:46:15;;;;;;;4.67;3.00;;;;;;;;;;5031317;28;20241;-62
2022/09/05 00:48:45;;;;;;;5.40;2.83;;;;;;;;;;5030966;28;20193;-62
2022/09/05 00:51:30;;;;;;;4.03;2.77;;;;;;;;;;5034391;28;20217;-62
2022/09/05 00:54:00;;;;;;;5.13;2.83;;;;;;;;;;5047514;28;20565;-61
2022/09/05 00:56:39;;;;;;;5.43;3.00;;;;;;;;;;5048430;28;20186;-62
2022/09/05 00:59:25;;;;;;;4.57;3.10;;;;;;;;;;5048184;28;20230;-62
2022/09/05 01:01:58;;;;;;;5.17;2.80;;;;;;;;;;5048755;28;20547;-62
2022/09/05 01:04:25;;;;;;;4.80;2.90;;;;;;;;;;5029391;28;20214;-62
2022/09/05 01:06:57;;;;;;;7.00;3.37;;;;;;;;;;5046843;28;20581;-62
2022/09/05 01:09:24;;;;;;;5.30;3.10;;;;;;;;;;5048506;28;20198;-62
2022/09/05 01:11:57;;;;;;;4.93;3.13;;;;;;;;;;5048432;28;20183;-61
2022/09/05 01:14:26;;;;;;;4.70;2.80;;;;;;;;;;5047895;28;20226;-62
2022/09/05 01:17:16;;;;;;;5.03;2.97;;;;;;;;;;5047285;28;20179;-62
2022/09/05 01:20:01;;;;;;;4.57;2.80;;;;;;;;;;5034362;28;20245;-61
2022/09/05 01:22:52;;;;;;;6.60;2.80;;;;;;;;;;5047974;28;20195;-61
2022/09/05 01:25:27;;;;;;;6.47;2.80;;;;;;;;;;5030449;28;20993;-61
2022/09/05 01:27:54;;;;;;;5.80;2.50;;;;;;;;;;5047747;28;20447;-62
2022/09/05 01:30:50;;;;;;;4.57;2.53;;;;;;;;;;5047129;28;20179;-62
2022/09/05 01:33:26;;;;;;;4.93;2.90;;;;;;;;;;5047442;28;20198;-62
2022/09/05 01:36:11;;;;;;;6.70;2.80;;;;;;;;;;5047231;28;20245;-62
2022/09/05 01:38:43;;;;;;;5.93;2.73;;;;;;;;;;5047056;28;20256;-62
2022/09/05 01:41:44;;;;;;;3.77;2.27;;;;;;;;;;5032770;28;20199;-62
2022/09/05 01:44:14;;;;;;;3.67;2.23;;;;;;;;;;5017173;28;20206;-62
2022/09/05 01:46:43;;;;;;;5.80;2.77;;;;;;;;;;5046856;28;20233;-61
2022/09/05 01:49:10;;;;;;;4.07;2.40;;;;;;;;;;5029557;28;20195;-62
2022/09/05 01:51:47;;;;;;;6.20;2.77;;;;;;;;;;5047009;28;20194;-62
2022/09/05 01:54:23;;;;;;;4.67;2.40;;;;;;;;;;5047281;28;20222;-61
2022/09/05 01:56:59;;;;;;;4.47;2.20;;;;;;;;;;5046800;28;20193;-62
2022/09/05 01:59:37;;;;;;;6.93;2.60;;;;;;;;;;5033631;28;20258;-62
2022/09/05 02:02:15;;;;;;;3.97;2.50;;;;;;;;;;5047143;28;20193;-62
2022/09/05 02:04:42;;;;;;;5.47;2.40;;;;;;;;;;5010561;28;20222;-62
2022/09/05 02:07:27;;;;;;;4.30;2.60;;;;;;;;;;5030524;28;20218;-62
2022/09/05 02:09:57;;;;;;;5.27;2.53;;;;;;;;;;5019686;28;20603;-62
2022/09/05 02:12:34;;;;;;;5.67;2.60;;;;;;;;;;5031113;28;20430;-62
2022/09/05 02:15:08;;;;;;;5.23;2.57;;;;;;;;;;5029408;28;20215;-62
2022/09/05 02:17:41;;;;;;;4.40;2.33;;;;;;;;;;5028824;28;20191;-61
2022/09/05 02:20:17;;;;;;;4.87;2.53;;;;;;;;;;5030547;28;20298;-62
2022/09/05 02:22:52;;;;;;;6.43;2.60;;;;;;;;;;5031108;28;20192;-61
2022/09/05 02:25:23;;;;;;;4.50;2.40;;;;;;;;;;5030778;28;20839;-62
2022/09/05 02:28:14;;;;;;;5.53;2.80;;;;;;;;;;5030314;28;20199;-62
2022/09/05 02:30:41;;;;;;;5.40;2.40;;;;;;;;;;5029215;28;20204;-62
2022/09/05 02:33:30;;;;;;;3.83;2.10;;;;;;;;;;5029578;28;20208;-62
2022/09/05 02:36:15;;;;;;;4.70;2.40;;;;;;;;;;5029104;28;20192;-62
2022/09/05 02:39:17;;;;;;;5.13;2.40;;;;;;;;;;5030288;28;20298;-62
2022/09/05 02:42:15;;;;;;;4.03;2.20;;;;;;;;;;4984189;28;20274;-63
2022/09/05 02:45:12;;;;;;;3.90;2.20;;;;;;;;;;4999458;28;20591;-65
2022/09/05 02:48:03;;;;;;;4.97;2.47;;;;;;;;;;4999381;28;20212;-65
2022/09/05 02:50:47;;;;;;;4.80;2.20;;;;;;;;;;5002292;28;20274;-64
2022/09/05 02:53:35;;;;;;;4.33;2.70;;;;;;;;;;5017887;28;20214;-65
2022/09/05 02:56:21;;;;;;;3.83;2.37;;;;;;;;;;4999501;28;20282;-65
2022/09/05 02:59:23;;;;;;;5.87;2.37;;;;;;;;;;5015833;28;20497;-67
2022/09/05 03:02:10;;;;;;;4.23;2.43;;;;;;;;;;5015415;28;20937;-65
2022/09/05 03:05:12;;;;;;;4.37;2.23;;;;;;;;;;5008357;28;20214;-62
2022/09/05 03:07:49;;;;;;;4.77;2.47;;;;;;;;;;5021995;28;20190;-62
2022/09/05 03:10:34;;;;;;;5.80;2.33;;;;;;;;;;5035369;28;20623;-63
2022/09/05 03:13:39;;;;;;;4.17;2.50;;;;;;;;;;5038814;28;20484;-63
2022/09/05 03:16:38;;;;;;;2.67;2.03;;;;;;;;;;5037571;28;20438;-61
2022/09/05 03:19:32;;;;;;;6.23;2.33;;;;;;;;;;5041986;28;21179;-62
2022/09/05 03:22:21;;;;;;;4.33;2.47;;;;;;;;;;5038596;28;20441;-61
2022/09/05 03:25:07;;;;;;;4.73;2.10;;;;;;;;;;5035768;28;20435;-61
2022/09/05 03:27:52;;;;;;;4.03;2.10;;;;;;;;;;5033210;28;20500;-63
2022/09/05 03:30:20;;;;;;;7.07;2.60;;;;;;;;;;5037387;28;20217;-63
2022/09/05 03:33:07;;;;;;;4.93;2.27;;;;;;;;;;5038757;28;20525;-63
2022/09/05 03:35:34;;;;;;;4.50;2.03;;;;;;;;;;5041353;28;20971;-64
2022/09/05 03:38:07;;;;;;;7.83;2.50;;;;;;;;;;5041113;28;20429;-63
2022/09/05 03:40:43;;;;;;;5.67;2.47;;;;;;;;;;5042324;28;20193;-63
2022/09/05 03:43:29;;;;;;;6.40;3.03;;;;;;;;;;5038684;28;20441;-64
2022/09/05 03:45:59;;;;;;;6.27;2.37;;;;;;;;;;5028089;28;21829;-65
2022/09/05 03:48:44;;;;;;;5.13;2.80;;;;;;;;;;5036590;28;20426;-63
2022/09/05 03:51:14;;;;;;;6.23;2.70;;;;;;;;;;5031719;28;20484;-64
2022/09/05 03:54:06;;;;;;;4.77;2.80;;;;;;;;;;5040557;28;20518;-64
2022/09/05 03:56:53;;;;;;;6.17;2.67;;;;;;;;;;5032063;28;20934;-64
2022/09/05 04:00:01;;;;;;;4.37;2.47;;;;;;;;;;5039700;28;20595;-63
2022/09/05 04:02:30;;;;;;;6.07;3.00;;;;;;;;;;5030737;28;20495;-67
2022/09/05 04:05:22;;;;;;;7.47;2.70;;;;;;;;;;5037741;28;20468;-64
2022/09/05 04:08:12;;;;;;;4.00;2.50;;;;;;;;;;5024648;28;20809;-64
2022/09/05 04:11:06;;;;;;;6.43;3.07;;;;;;;;;;5038059;28;20194;-63
2022/09/05 04:13:44;;;;;;;8.90;2.77;;;;;;;;;;5022093;28;20519;-63
2022/09/05 04:16:24;;;;;;;6.17;2.80;;;;;;;;;;5043708;28;20465;-63
2022/09/05 04:18:55;;;;;;;5.97;3.10;;;;;;;;;;5009870;28;21020;-63
2022/09/05 04:21:27;;;;;;;6.03;2.93;;;;;;;;;;5014518;28;20201;-62
2022/09/05 04:24:01;;;;;;;5.30;2.33;;;;;;;;;;5045251;28;20548;-62
2022/09/05 04:26:44;;;;;;;6.97;2.67;;;;;;;;;;5040941;28;20452;-63
2022/09/05 04:29:17;;;;;;;8.27;2.60;;;;;;;;;;5031377;28;20786;-62
2022/09/05 04:31:47;;;;;;;7.10;2.63;;;;;;;;;;5048452;28;20237;-62
2022/09/05 04:34:55;;;;;;;6.53;2.53;;;;;;;;;;5049004;28;21258;-62
2022/09/05 04:37:34;;;;;;;7.43;2.50;;;;;;;;;;5035290;28;20483;-62
2022/09/05 04:40:29;;;;;;;4.57;2.33;;;;;;;;;;5046669;28;21310;-62
2022/09/05 04:43:12;;;;;;;9.03;2.57;;;;;;;;;;5048476;28;20433;-62
2022/09/05 04:45:40;;;;;;;6.90;2.60;;;;;;;;;;5030689;28;20494;-62
2022/09/05 04:48:08;;;;;;;6.23;2.23;;;;;;;;;;5031383;28;20433;-62
2022/09/05 04:50:53;;;;;;;9.23;2.53;;;;;;;;;;5048046;28;20187;-63
2022/09/05 04:53:30;;;;;;;12.53;2.87;;;;;;;;;;5044732;28;20195;-63
2022/09/05 04:55:57;;;;;;;14.43;3.37;;;;;;;;;;5030725;28;20197;-62
2022/09/05 04:58:25;;;;;;;8.90;3.00;;;;;;;;;;5048318;28;20433;-63
2022/09/05 05:01:22;;;;;;;3.97;2.40;;;;;;;;;;5033590;28;20441;-63
2022/09/05 05:04:11;;;;;;;7.20;3.17;;;;;;;;;;5033781;28;20963;-63
2022/09/05 05:07:06;;;;;;;4.83;2.70;;;;;;;;;;5033200;28;20460;-62
2022/09/05 05:09:34;;;;;;;7.10;2.80;;;;;;;;;;5048650;28;21103;-62
2022/09/05 05:12:01;;;;;;;8.07;3.27;;;;;;;;;;5048247;28;20182;-63
2022/09/05 05:15:00;;;;;;;6.17;2.20;;;;;;;;;;5048365;28;20487;-62
2022/09/05 05:17:54;;;;;;;8.77;2.67;;;;;;;;;;5048016;28;20430;-62
2022/09/05 05:20:42;;;;;;;12.70;2.93;;;;;;;;;;5047884;28;20444;-62
2022/09/05 05:23:12;;;;;;;8.97;2.90;;;;;;;;;;5047867;28;20934;-63
2022/09/05 05:25:49;;;;;;;11.50;3.10;;;;;;;;;;5030290;28;20440;-62
2022/09/05 05:28:19;;;;;;;9.40;4.20;;;;;;;;;;5047969;28;20218;-62
2022/09/05 05:30:50;;;;;;;9.30;3.20;;;;;;;;;;5048199;28;20196;-62
2022/09/05 05:33:22;;;;;;;7.63;3.17;;;;;;;;;;5043764;28;20219;-63
2022/09/05 05:35:49;;;;;;;6.70;3.00;;;;;;;;;;5047917;28;20219;-62
2022/09/05 05:38:16;;;;;;;6.27;2.77;;;;;;;;;;5047455;28;20196;-64
2022/09/05 05:40:48;;;;;;;5.20;3.00;;;;;;;;;;5032196;28;20191;-62
2022/09/05 05:43:40;;;;;;;7.77;3.23;;;;;;;;;;5015785;28;20706;-62
2022/09/05 05:46:14;;;;;;;10.47;3.07;;;;;;;;;;5030260;28;20212;-62
2022/09/05 05:48:41;;;;;;;5.57;3.60;;;;;;;;;;5041164;28;20218;-62
2022/09/05 05:51:25;;;;;;;6.77;3.73;;;;;;;;;;5036875;28;20764;-64
2022/09/05 05:54:31;;;;;;;7.87;4.03;;;;;;;;;;5040792;28;20207;-63
2022/09/05 05:57:17;;;;;;;7.60;3.70;;;;;;;;;;5036320;28;20229;-63
2022/09/05 06:00:02;;;;;;;8.63;3.80;;;;;;;;;;5035126;28;20256;-64
2022/09/05 06:02:56;;;;;;;5.77;3.50;;;;;;;;;;5042119;28;20225;-63
2022/09/05 06:06:01;;;;;;;13.17;3.80;;;;;;;;;;5033470;28;20819;-63
2022/09/05 06:08:47;;;;;;;14.17;4.27;;;;;;;;;;5047965;28;20207;-63
2022/09/05 06:11:54;;;;;;;34.87;5.50;;;;;;;;;;5023482;28;20193;-64
2022/09/05 06:14:53;;;;;;;26.37;4.93;;;;;;;;;;5034232;28;20210;-63
2022/09/05 06:17:57;;;;;;;32.33;5.47;;;;;;;;;;5034335;28;20192;-63
2022/09/05 06:20:43;;;;;;;26.97;5.37;;;;;;;;;;5033590;28;20194;-63
2022/09/05 06:23:52;;;;;;;34.53;5.20;;;;;;;;;;5033273;28;20184;-62
2022/09/05 06:26:40;;;;;;;47.50;4.80;;;;;;;;;;5019670;28;20886;-61
2022/09/05 06:29:13;;;;;;;76.37;9.93;;;;;;;;;;5046861;28;20261;-61
2022/09/05 06:31:43;;;;;;;21.57;4.10;;;;;;;;;;5033028;28;20283;-61
2022/09/05 06:34:18;;;;;;;23.03;4.30;;;;;;;;;;5050804;28;20324;-63
2022/09/05 06:37:03;;;;;;;11.03;3.90;;;;;;;;;;5050350;28;20230;-63
2022/09/05 06:39:37;;;;;;;13.83;4.20;;;;;;;;;;5047831;28;20278;-63
2022/09/05 06:42:26;;;;;;;15.87;4.10;;;;;;;;;;5051193;28;20650;-63
2022/09/05 06:45:18;;;;;;;18.20;4.80;;;;;;;;;;5051137;28;20275;-63
2022/09/05 06:48:06;;;;;;;7.77;3.20;;;;;;;;;;5050645;28;21007;-63
2022/09/05 06:50:53;;;;;;;7.80;3.30;;;;;;;;;;5050377;28;20237;-63
2022/09/05 06:53:55;;;;;;;7.67;2.77;;;;;;;;;;5043656;28;20194;-64
2022/09/05 06:56:25;;;;;;;3.67;2.37;;;;;;;;;;5032709;28;20219;-64
2022/09/05 06:58:52;;;;;;;6.33;2.03;;;;;;;;;;5032850;28;20191;-64
2022/09/05 07:01:25;;;;;;;4.23;2.00;;;;;;;;;;5050571;28;20209;-64
2022/09/05 07:04:14;;;;;;;4.10;2.00;;;;;;;;;;5050268;28;20550;-64
2022/09/05 07:07:13;;;;;;;4.13;2.23;;;;;;;;;;5035666;28;20210;-64
2022/09/05 07:09:42;;;;;;;4.23;1.73;;;;;;;;;;5050727;28;20191;-65
2022/09/05 07:12:29;;;;;;;4.17;1.90;;;;;;;;;;5050599;28;20221;-64
2022/09/05 07:14:59;;;;;;;3.70;1.60;;;;;;;;;;5000070;28;20229;-64
2022/09/05 07:17:41;;;;;;;4.30;1.90;;;;;;;;;;5050087;28;20186;-64
2022/09/05 07:20:34;;;;;;;4.27;1.80;;;;;;;;;;5049872;28;20191;-64
2022/09/05 07:23:39;;;;;;;4.10;2.00;;;;;;;;;;5035625;28;20232;-64
2022/09/05 07:26:26;;;;;;;3.90;2.23;;;;;;;;;;5035751;28;20240;-64
2022/09/05 07:29:15;;;;;;;2.53;1.53;;;;;;;;;;5035585;28;20554;-64
2022/09/05 07:31:42;;;;;;;2.50;1.30;;;;;;;;;;5027920;28;20187;-64
2022/09/05 07:34:16;;;;;;;4.20;1.10;;;;;;;;;;5032202;28;20191;-64
2022/09/05 07:36:53;;;;;;;1.73;0.90;;;;;;;;;;5032412;28;20195;-64
2022/09/05 07:39:42;;;;;;;2.03;1.10;;;;;;;;;;5049792;28;20191;-64
2022/09/05 07:42:12;;;;;;;1.83;0.70;;;;;;;;;;5050038;28;20826;-64
2022/09/05 07:44:39;;;;;;;3.17;0.80;;;;;;;;;;5015680;28;20558;-64
2022/09/05 07:47:07;;;;;;;3.20;0.83;;;;;;;;;;5049447;28;20244;-65
2022/09/05 07:49:34;;;;;;;1.13;0.77;;;;;;;;;;5031986;28;20187;-64
2022/09/05 07:52:10;;;;;;;1.20;0.70;;;;;;;;;;5048198;28;20199;-64
2022/09/05 07:55:00;;;;;;;0.80;0.70;;;;;;;;;;5049659;28;20199;-64
2022/09/05 07:57:47;;;;;;;1.67;0.60;;;;;;;;;;5046709;28;20578;-64
2022/09/05 08:00:19;;;;;;;1.20;0.80;;;;;;;;;;5049617;28;20690;-64
2022/09/05 08:02:56;;;;;;;1.77;0.70;;;;;;;;;;5046207;28;20948;-64
2022/09/05 08:05:24;;;;;;;2.60;0.70;;;;;;;;;;5015028;28;20227;-64
2022/09/05 08:08:01;;;;;;;1.47;0.90;;;;;;;;;;5031289;28;20827;-64
2022/09/05 08:10:35;;;;;;;2.47;0.90;;;;;;;;;;5049165;28;20186;-64
2022/09/05 08:13:26;;;;;;;1.43;1.03;;;;;;;;;;5049136;28;20197;-64
2022/09/05 08:15:53;;;;;;;2.67;1.20;;;;;;;;;;5031560;28;20234;-64
2022/09/05 08:18:48;;;;;;;2.27;1.27;;;;;;;;;;5048947;28;20724;-64
2022/09/05 08:21:20;;;;;;;2.43;1.20;;;;;;;;;;5037857;28;20230;-64
2022/09/05 08:24:08;;;;;;;1.50;0.77;;;;;;;;;;5048712;28;20733;-64
2022/09/05 08:26:44;;;;;;;2.07;1.03;;;;;;;;;;5032564;28;20198;-64
2022/09/05 08:29:13;;;;;;;3.13;0.80;;;;;;;;;;5031473;28;20550;-65
2022/09/05 08:31:39;;;;;;;3.23;1.00;;;;;;;;;;5044578;28;20198;-65
2022/09/05 08:34:10;;;;;;;1.13;0.80;;;;;;;;;;5048931;28;20702;-64
2022/09/05 08:36:40;;;;;;;1.57;0.67;;;;;;;;;;5048625;28;20218;-64
2022/09/05 08:39:07;;;;;;;1.80;0.83;;;;;;;;;;5049069;28;20209;-64
2022/09/05 08:41:36;;;;;;;1.23;0.60;;;;;;;;;;5026271;28;20293;-65
2022/09/05 08:44:30;;;;;;;1.93;0.53;;;;;;;;;;5032583;28;20191;-64
2022/09/05 08:47:35;;;;;;;2.20;0.70;;;;;;;;;;5039062;28;20672;-64
2022/09/05 08:50:28;;;;;;;0.90;0.60;;;;;;;;;;5046519;28;20208;-65
2022/09/05 08:53:04;;;;;;;4.40;1.50;;;;;;;;;;5030768;28;20195;-64
2022/09/05 08:55:51;;;;;;;2.90;0.90;;;;;;;;;;5033719;28;20288;-65
2022/09/05 08:58:24;;;;;;;1.83;1.23;;;;;;;;;;5048396;28;20190;-64
2022/09/05 09:00:52;;;;;;;2.17;1.00;;;;;;;;;;5028837;28;20199;-64
2022/09/05 09:03:27;;;;;;;1.30;0.97;;;;;;;;;;5031660;28;20264;-64
2022/09/05 09:05:54;;;;;;;0.90;0.80;;;;;;;;;;5047932;28;20250;-65
2022/09/05 09:08:40;;;;;;;1.30;0.73;;;;;;;;;;5048410;28;20597;-65
2022/09/05 09:11:10;;;;;;;2.63;1.10;;;;;;;;;;5048154;28;20274;-64
2022/09/05 09:14:14;;;;;;;2.60;1.20;;;;;;;;;;5030588;28;20662;-65
2022/09/05 09:17:03;;;;;;;1.77;1.10;;;;;;;;;;5046953;28;20272;-65
2022/09/05 09:19:43;;;;;;;16.20;2.97;;;;;;;;;;5048565;28;20202;-64
2022/09/05 09:22:15;;;;;;;1.83;1.10;;;;;;;;;;5030822;28;20191;-65
2022/09/05 09:25:34;;;;;;;2.27;1.47;;;;;;;;;;5035033;28;20175;-64
2022/09/05 09:28:19;;;;;;;2.40;1.17;;;;;;;;;;4947881;29;20268;-64
2022/09/05 09:31:14;;;;;;;3.23;1.40;;;;;;;;;;5039104;28;20233;-64
2022/09/05 09:33:50;;;;;;;3.20;1.70;;;;;;;;;;5030365;28;20584;-65
2022/09/05 09:36:24;;;;;;;7.47;1.67;;;;;;;;;;5047902;28;20334;-65
2022/09/05 09:38:51;;;;;;;2.23;1.50;;;;;;;;;;5030190;28;20567;-64
2022/09/05 09:41:44;;;;;;;2.67;1.40;;;;;;;;;;5047875;28;20247;-64
2022/09/05 09:44:14;;;;;;;2.37;1.13;;;;;;;;;;5047903;28;20228;-65
2022/09/05 09:46:42;;;;;;;1.23;0.90;;;;;;;;;;5047901;28;20202;-64
2022/09/05 09:49:15;;;;;;;2.73;1.03;;;;;;;;;;5048048;28;20205;-64
2022/09/05 09:51:59;;;;;;;2.80;1.00;;;;;;;;;;5043610;28;20265;-64
2022/09/05 09:54:44;;;;;;;6.60;1.47;;;;;;;;;;5035472;28;20213;-64
2022/09/05 09:57:16;;;;;;;2.40;0.70;;;;;;;;;;5048339;28;20191;-65
2022/09/05 09:59:48;;;;;;;0.70;0.70;;;;;;;;;;5047727;28;20186;-65
2022/09/05 10:02:32;;;;;;;1.60;1.10;;;;;;;;;;5046739;28;20206;-65
2022/09/05 10:05:25;;;;;;;2.03;0.90;;;;;;;;;;5047535;28;20298;-65
2022/09/05 10:08:15;;;;;;;1.60;1.03;;;;;;;;;;5047668;28;20221;-64
2022/09/05 10:11:20;;;;;;;1.80;1.10;;;;;;;;;;5047708;28;20199;-65
2022/09/05 10:14:07;;;;;;;2.33;0.80;;;;;;;;;;5047469;28;20228;-65
2022/09/05 10:17:05;;;;;;;1.23;0.90;;;;;;;;;;5047445;28;20246;-65
2022/09/05 10:19:45;;;;;;;1.77;0.80;;;;;;;;;;5047322;28;20266;-65
2022/09/05 10:22:34;;;;;;;0.90;0.70;;;;;;;;;;5033053;28;20218;-65
2022/09/05 10:25:43;;;;;;;1.10;0.70;;;;;;;;;;5047307;28;20260;-64
2022/09/05 10:28:23;;;;;;;0.80;0.60;;;;;;;;;;5033531;28;20195;-65
2022/09/05 10:30:57;;;;;;;0.80;0.60;;;;;;;;;;5033582;28;20198;-65
2022/09/05 10:34:02;;;;;;;1.33;0.50;;;;;;;;;;5036156;28;20249;-65
2022/09/05 10:36:57;;;;;;;0.53;0.40;;;;;;;;;;5050937;28;20280;-65
2022/09/05 10:39:25;;;;;;;0.40;0.40;;;;;;;;;;5051075;28;20322;-66
2022/09/05 10:41:57;;;;;;;0.50;0.40;;;;;;;;;;5033392;28;20244;-65
2022/09/05 10:44:39;;;;;;;1.40;0.60;;;;;;;;;;5050834;28;20541;-65
2022/09/05 10:47:22;;;;;;;0.43;0.30;;;;;;;;;;5033716;28;20195;-65
2022/09/05 10:49:49;;;;;;;0.50;0.40;;;;;;;;;;5049440;28;20195;-65
2022/09/05 10:52:20;;;;;;;0.77;0.40;;;;;;;;;;5047926;28;20277;-64
2022/09/05 10:54:53;;;;;;;0.77;0.47;;;;;;;;;;5051160;28;20199;-64
2022/09/05 10:57:45;;;;;;;0.70;0.50;;;;;;;;;;5050924;28;20229;-64
2022/09/05 11:00:21;;;;;;;1.37;0.60;;;;;;;;;;5033307;28;20658;-65
2022/09/05 11:03:12;;;;;;;0.53;0.30;;;;;;;;;;5040071;28;20684;-65
2022/09/05 11:05:54;;;;;;;0.43;0.30;;;;;;;;;;5050206;28;20869;-65
2022/09/05 11:08:24;;;;;;;2.67;0.50;;;;;;;;;;5050206;28;20274;-65
2022/09/05 11:10:55;;;;;;;0.60;0.40;;;;;;;;;;5050405;28;20732;-65
2022/09/05 11:13:40;;;;;;;2.50;0.30;;;;;;;;;;5032816;28;20309;-65
2022/09/05 11:16:07;;;;;;;0.30;0.30;;;;;;;;;;5032687;28;20210;-65
2022/09/05 11:18:49;;;;;;;0.70;0.40;;;;;;;;;;5050279;28;20202;-65
2022/09/05 11:21:28;;;;;;;0.40;0.30;;;;;;;;;;5050382;28;20256;-65
2022/09/05 11:23:55;;;;;;;0.60;0.37;;;;;;;;;;5050098;28;20964;-65
2022/09/05 11:26:26;;;;;;;0.80;0.40;;;;;;;;;;5032417;28;20274;-65
2022/09/05 11:28:54;;;;;;;0.93;0.40;;;;;;;;;;5050556;28;20261;-65
2022/09/05 11:31:35;;;;;;;2.47;0.50;;;;;;;;;;5049802;28;20274;-65
2022/09/05 11:34:37;;;;;;;0.47;0.47;;;;;;;;;;5035183;28;20192;-65
2022/09/05 11:37:33;;;;;;;0.67;0.50;;;;;;;;;;5033777;28;20241;-65
2022/09/05 11:40:21;;;;;;;0.63;0.40;;;;;;;;;;5048898;28;20206;-63
2022/09/05 11:43:17;;;;;;;0.80;0.37;;;;;;;;;;5048526;28;20194;-65
2022/09/05 11:45:56;;;;;;;1.10;0.50;;;;;;;;;;5049648;28;20194;-65
2022/09/05 11:48:46;;;;;;;1.73;0.60;;;;;;;;;;5049659;28;20301;-65
2022/09/05 11:51:19;;;;;;;1.43;0.50;;;;;;;;;;5029414;28;20187;-66
2022/09/05 11:54:05;;;;;;;2.23;0.53;;;;;;;;;;5049192;28;20187;-65
2022/09/05 11:56:47;;;;;;;1.03;0.70;;;;;;;;;;5029070;28;20214;-67
2022/09/05 11:59:20;;;;;;;1.37;0.60;;;;;;;;;;5034216;28;20192;-66
2022/09/05 12:02:20;;;;;;;0.70;0.40;;;;;;;;;;5039853;28;20226;-63
2022/09/05 12:04:50;;;;;;;0.80;0.60;;;;;;;;;;5041850;28;20304;-63
2022/09/05 12:07:56;;;;;;;0.73;0.43;;;;;;;;;;5033441;28;20651;-67
2022/09/05 12:10:27;;;;;;;0.30;0.30;;;;;;;;;;5039142;28;20195;-67
2022/09/05 12:13:15;;;;;;;0.50;0.30;;;;;;;;;;5040035;28;20246;-66
2022/09/05 12:15:47;;;;;;;2.93;0.50;;;;;;;;;;5042515;28;20310;-64
2022/09/05 12:18:39;;;;;;;0.83;0.40;;;;;;;;;;5033434;28;20195;-64
2022/09/05 12:21:12;;;;;;;10.70;0.93;;;;;;;;;;5019961;28;20274;-63
2022/09/05 12:23:48;;;;;;;0.47;0.33;;;;;;;;;;5042362;28;20316;-63
2022/09/05 12:26:53;;;;;;;1.03;0.50;;;;;;;;;;5032983;28;20202;-64
2022/09/05 12:29:41;;;;;;;0.70;0.50;;;;;;;;;;5036866;28;20194;-66
2022/09/05 12:32:19;;;;;;;0.37;0.30;;;;;;;;;;5031598;28;20328;-66
2022/09/05 12:35:06;;;;;;;1.43;0.30;;;;;;;;;;5034754;28;20645;-65
2022/09/05 12:37:56;;;;;;;1.17;0.40;;;;;;;;;;5025806;28;20241;-65
2022/09/05 12:40:48;;;;;;;1.00;0.33;;;;;;;;;;5009619;28;20213;-64
2022/09/05 12:43:36;;;;;;;0.47;0.30;;;;;;;;;;5037502;28;20200;-64
2022/09/05 12:46:25;;;;;;;1.07;0.27;;;;;;;;;;5022781;28;20191;-65
2022/09/05 12:48:56;;;;;;;1.17;0.47;;;;;;;;;;5017052;28;20735;-64
2022/09/05 12:51:35;;;;;;;0.30;0.30;;;;;;;;;;5024328;28;20199;-65
2022/09/05 12:54:24;;;;;;;0.30;0.30;;;;;;;;;;5024865;28;20233;-64
2022/09/05 12:57:18;;;;;;;0.80;0.40;;;;;;;;;;5023801;28;20319;-63
2022/09/05 13:00:09;;;;;;;0.50;0.40;;;;;;;;;;5036621;28;20191;-64
2022/09/05 13:03:01;;;;;;;0.30;0.20;;;;;;;;;;5023517;28;20570;-64
2022/09/05 13:05:51;;;;;;;1.23;0.50;;;;;;;;;;5035781;28;20238;-66
2022/09/05 13:08:20;;;;;;;2.63;0.60;;;;;;;;;;5023529;28;20277;-64
2022/09/05 13:10:51;;;;;;;0.30;0.20;;;;;;;;;;5039049;28;20260;-65
2022/09/05 13:13:49;;;;;;;1.20;0.40;;;;;;;;;;5034169;28;20216;-67
2022/09/05 13:16:38;;;;;;;0.37;0.20;;;;;;;;;;5034054;28;20227;-65
2022/09/05 13:19:06;;;;;;;0.67;0.40;;;;;;;;;;5023735;28;20190;-64
2022/09/05 13:21:38;;;;;;;0.40;0.37;;;;;;;;;;5022225;28;20195;-65
2022/09/05 13:24:10;;;;;;;3.80;0.60;;;;;;;;;;5023470;28;20215;-66
2022/09/05 13:26:40;;;;;;;0.30;0.30;;;;;;;;;;5023643;28;20205;-64
2022/09/05 13:29:47;;;;;;;1.60;0.30;;;;;;;;;;5022115;28;20182;-64
2022/09/05 13:32:39;;;;;;;0.67;0.30;;;;;;;;;;5031477;28;20245;-63
2022/09/05 13:35:27;;;;;;;0.30;0.30;;;;;;;;;;5025633;28;20273;-64
2022/09/05 13:38:15;;;;;;;0.40;0.30;;;;;;;;;;5031581;28;20993;-65
2022/09/05 13:41:02;;;;;;;1.97;0.70;;;;;;;;;;5035020;28;20201;-65
2022/09/05 13:43:35;;;;;;;1.00;0.60;;;;;;;;;;5031944;28;20183;-63
2022/09/05 13:46:02;;;;;;;0.50;0.30;;;;;;;;;;5038933;28;20355;-66
2022/09/05 13:48:33;;;;;;;1.60;0.30;;;;;;;;;;5046451;28;21146;-66
2022/09/05 13:51:26;;;;;;;0.63;0.40;;;;;;;;;;5035434;28;20186;-66
2022/09/05 13:54:02;;;;;;;1.97;0.40;;;;;;;;;;5034958;28;20329;-64
2022/09/05 13:56:31;;;;;;;1.37;0.60;;;;;;;;;;5048598;28;20673;-64
2022/09/05 13:59:07;;;;;;;0.80;0.20;;;;;;;;;;5047614;28;20195;-64
2022/09/05 14:01:55;;;;;;;1.07;0.30;;;;;;;;;;5051358;28;20198;-64
2022/09/05 14:05:00;;;;;;;0.50;0.30;;;;;;;;;;5053915;28;20709;-63
2022/09/05 14:07:52;;;;;;;0.53;0.40;;;;;;;;;;5064515;28;20187;-64
2022/09/05 14:10:42;;;;;;;0.30;0.30;;;;;;;;;;5054706;28;20194;-64
2022/09/05 14:13:15;;;;;;;0.53;0.30;;;;;;;;;;5055068;28;20179;-64
2022/09/05 14:15:48;;;;;;;1.93;0.37;;;;;;;;;;5072200;28;20839;-64
2022/09/05 14:18:19;;;;;;;1.40;0.40;;;;;;;;;;5055286;28;20201;-64
2022/09/05 14:21:15;;;;;;;0.97;0.30;;;;;;;;;;5049776;28;20174;-63
2022/09/05 14:23:43;;;;;;;0.90;0.40;;;;;;;;;;5052009;28;20606;-65
2022/09/05 14:26:12;;;;;;;0.37;0.20;;;;;;;;;;5059656;28;20244;-65
2022/09/05 14:28:44;;;;;;;3.10;0.30;;;;;;;;;;5013455;28;20709;-64
2022/09/05 14:31:13;;;;;;;0.30;0.23;;;;;;;;;;5026699;28;20201;-67
2022/09/05 14:34:12;;;;;;;0.40;0.30;;;;;;;;;;5027748;28;20203;-64
2022/09/05 14:37:06;;;;;;;0.77;0.20;;;;;;;;;;5041545;28;20214;-67
2022/09/05 14:39:58;;;;;;;1.03;0.43;;;;;;;;;;5045915;28;20218;-65
2022/09/05 14:42:39;;;;;;;1.63;0.50;;;;;;;;;;5040945;28;20758;-67
2022/09/05 14:45:06;;;;;;;1.07;0.40;;;;;;;;;;5033972;28;20179;-65
2022/09/05 14:47:41;;;;;;;0.50;0.30;;;;;;;;;;5038721;28;20198;-66
2022/09/05 14:50:12;;;;;;;0.60;0.30;;;;;;;;;;5023712;28;20210;-66
2022/09/05 14:53:00;;;;;;;1.13;0.40;;;;;;;;;;5044223;28;20202;-66
2022/09/05 14:55:53;;;;;;;0.40;0.30;;;;;;;;;;5042051;28;20211;-67
2022/09/05 14:58:40;;;;;;;0.50;0.33;;;;;;;;;;5040325;28;20528;-66
2022/09/05 15:01:29;;;;;;;1.53;0.30;;;;;;;;;;5040071;28;20612;-66
2022/09/05 15:04:21;;;;;;;1.00;0.70;;;;;;;;;;5035690;28;20338;-65
2022/09/05 15:07:14;;;;;;;0.40;0.30;;;;;;;;;;5033346;28;20310;-67
2022/09/05 15:09:41;;;;;;;1.33;0.70;;;;;;;;;;5041018;28;20205;-65
2022/09/05 15:12:28;;;;;;;0.40;0.40;;;;;;;;;;5009333;28;20192;-64
2022/09/05 15:15:16;;;;;;;0.40;0.40;;;;;;;;;;5038322;28;20210;-64
2022/09/05 15:17:45;;;;;;;1.00;0.23;;;;;;;;;;5022747;28;20227;-64
2022/09/05 15:20:25;;;;;;;0.70;0.40;;;;;;;;;;5022003;28;20880;-63
2022/09/05 15:22:52;;;;;;;1.47;0.30;;;;;;;;;;5043825;28;20195;-65
2022/09/05 15:25:24;;;;;;;1.37;0.30;;;;;;;;;;5041832;28;20199;-65
2022/09/05 15:27:51;;;;;;;0.93;0.30;;;;;;;;;;5042245;28;20210;-65
2022/09/05 15:30:26;;;;;;;2.77;1.40;;;;;;;;;;5025587;28;20231;-65
2022/09/05 15:33:22;;;;;;;3.23;1.13;;;;;;;;;;5041598;28;20189;-66
2022/09/05 15:35:51;;;;;;;1.07;0.30;;;;;;;;;;5036143;28;20199;-64
2022/09/05 15:38:19;;;;;;;0.63;0.30;;;;;;;;;;5032089;28;20654;-65
2022/09/05 15:41:01;;;;;;;0.40;0.20;;;;;;;;;;5038229;28;20313;-65
2022/09/05 15:43:27;;;;;;;0.50;0.20;;;;;;;;;;5028759;28;20293;-66
2022/09/05 15:46:02;;;;;;;1.53;0.30;;;;;;;;;;5025533;28;20194;-64
2022/09/05 15:48:30;;;;;;;1.80;0.40;;;;;;;;;;5008475;28;20222;-67
2022/09/05 15:51:03;;;;;;;0.53;0.20;;;;;;;;;;5035947;28;20211;-68
2022/09/05 15:53:35;;;;;;;0.30;0.20;;;;;;;;;;5023725;28;20195;-66
2022/09/05 15:56:09;;;;;;;0.73;0.20;;;;;;;;;;5028697;28;20202;-65
2022/09/05 15:58:37;;;;;;;0.87;0.40;;;;;;;;;;5034171;28;20278;-65
2022/09/05 16:01:25;;;;;;;0.33;0.30;;;;;;;;;;5037202;28;20278;-67
2022/09/05 16:04:13;;;;;;;0.30;0.17;;;;;;;;;;5039396;28;20198;-65
2022/09/05 16:07:00;;;;;;;0.20;0.20;;;;;;;;;;5033125;28;20199;-67